createdAt,value
2023-05-12T00:00:59.383Z,97242.50
2023-05-12T00:03:28.142Z,97319.50
2023-05-12T00:06:00.552Z,97327.13
2023-05-12T00:08:28.964Z,97321.94
2023-05-12T00:10:57.444Z,97320.91
2023-05-12T00:13:27.658Z,97337.78
2023-05-12T00:15:56.980Z,97197.94
2023-05-12T00:18:25.873Z,97288.69
2023-05-12T00:20:56.093Z,97322.72
2023-05-12T00:23:26.499Z,97326.28
2023-05-12T00:26:27.774Z,97320.09
2023-05-12T00:28:56.160Z,97310.75
2023-05-12T00:31:24.515Z,97320.50
2023-05-12T00:33:53.016Z,97293.91
2023-05-12T00:36:21.456Z,97251.75
2023-05-12T00:38:51.343Z,97292.44
2023-05-12T00:41:19.877Z,97311.94
2023-05-12T00:43:48.304Z,97288.03
2023-05-12T00:46:16.974Z,97283.75
2023-05-12T00:48:46.079Z,97106.28
2023-05-12T00:51:15.888Z,97301.38
2023-05-12T00:53:49.952Z,97227.72
2023-05-12T00:56:22.257Z,97309.38
2023-05-12T00:58:50.892Z,97276.75
2023-05-12T01:01:19.441Z,97231.38
2023-05-12T01:03:47.993Z,97304.13
2023-05-12T01:06:23.868Z,97307.69
2023-05-12T01:08:52.528Z,97312.00
2023-05-12T01:11:22.869Z,97308.47
2023-05-12T01:13:51.191Z,97309.31
2023-05-12T01:16:24.348Z,97310.22
2023-05-12T01:18:55.802Z,97295.56
2023-05-12T01:21:24.062Z,97306.75
2023-05-12T01:24:04.262Z,97305.06
2023-05-12T01:26:34.019Z,97302.44
2023-05-12T01:29:03.847Z,97305.00
2023-05-12T01:31:33.025Z,97311.19
2023-05-12T01:34:01.184Z,97309.44
2023-05-12T01:36:29.340Z,97310.09
2023-05-12T01:38:57.507Z,97314.50
2023-05-12T01:41:25.613Z,97314.47
2023-05-12T01:43:55.185Z,97314.41
2023-05-12T01:46:23.447Z,97306.50
2023-05-12T01:48:51.631Z,97304.78
2023-05-12T01:51:19.864Z,97302.06
2023-05-12T01:53:48.004Z,97304.78
2023-05-12T01:56:16.213Z,97304.47
2023-05-12T01:58:44.450Z,97237.31
2023-05-12T02:01:14.625Z,97275.66
2023-05-12T02:03:43.083Z,97297.19
2023-05-12T02:06:11.298Z,97281.81
2023-05-12T02:08:39.460Z,97294.41
2023-05-12T02:11:08.338Z,97280.66
2023-05-12T02:13:37.031Z,97247.41
2023-05-12T02:16:05.766Z,97294.41
2023-05-12T02:18:35.376Z,97290.97
2023-05-12T02:21:03.728Z,97295.44
2023-05-12T02:23:31.976Z,97297.13
2023-05-12T02:26:00.197Z,97296.03
2023-05-12T02:28:28.388Z,97296.28
2023-05-12T02:30:57.101Z,97274.88
2023-05-12T02:33:25.285Z,97290.19
2023-05-12T02:35:54.885Z,97297.97
2023-05-12T02:38:23.599Z,97266.69
2023-05-12T02:40:51.741Z,97267.75
2023-05-12T02:43:20.033Z,97267.41
2023-05-12T02:45:48.381Z,97282.13
2023-05-12T02:48:16.943Z,97261.44
2023-05-12T02:50:45.077Z,97278.41
2023-05-12T02:53:14.661Z,97274.91
2023-05-12T02:55:42.742Z,97248.56
2023-05-12T02:58:11.127Z,97182.50
2023-05-12T03:00:39.397Z,97282.84
2023-05-12T03:03:08.043Z,97276.97
2023-05-12T03:05:36.413Z,97266.88
2023-05-12T03:08:04.729Z,97276.84
2023-05-12T03:10:34.427Z,97278.53
2023-05-12T03:13:02.782Z,97280.41
2023-05-12T03:15:31.049Z,97276.78
2023-05-12T03:17:59.336Z,97282.06
2023-05-12T03:20:27.538Z,97278.44
2023-05-12T03:22:55.903Z,97282.97
2023-05-12T03:25:24.162Z,97284.53
2023-05-12T03:27:53.825Z,97279.19
2023-05-12T03:30:22.178Z,97228.00
2023-05-12T03:32:50.454Z,97285.28
2023-05-12T03:35:18.735Z,97281.81
2023-05-12T03:37:47.002Z,97215.94
2023-05-12T03:40:18.973Z,97280.03
2023-05-12T03:42:47.449Z,97286.97
2023-05-12T03:45:17.048Z,97201.34
2023-05-12T03:47:45.314Z,97297.44
2023-05-12T03:50:13.678Z,97296.38
2023-05-12T03:52:42.434Z,97290.13
2023-05-12T03:55:11.024Z,97280.88
2023-05-12T03:57:39.248Z,97282.63
2023-05-12T04:00:08.478Z,97288.47
2023-05-12T04:02:38.298Z,97287.75
2023-05-12T04:05:08.369Z,97259.63
2023-05-12T04:07:36.979Z,97299.22
2023-05-12T04:10:05.912Z,97298.25
2023-05-12T04:12:34.563Z,97295.75
2023-05-12T04:15:03.292Z,97297.66
2023-05-12T04:17:31.537Z,97302.03
2023-05-12T04:20:01.372Z,97306.25
2023-05-12T04:22:29.514Z,97308.78
2023-05-12T04:24:57.695Z,97300.06
2023-05-12T04:27:25.895Z,97312.97
2023-05-12T04:29:54.066Z,97301.81
2023-05-12T04:32:22.296Z,97249.69
2023-05-12T04:34:51.687Z,97319.19
2023-05-12T04:37:22.398Z,97325.22
2023-05-12T04:39:50.630Z,97323.59
2023-05-12T04:42:18.855Z,97330.47
2023-05-12T04:44:47.303Z,97328.63
2023-05-12T04:47:15.590Z,97326.84
2023-05-12T04:49:43.794Z,97326.78
2023-05-12T04:52:12.078Z,97327.66
2023-05-12T04:54:41.655Z,97330.28
2023-05-12T04:57:09.817Z,97323.38
2023-05-12T04:59:39.917Z,97324.81
2023-05-12T05:02:09.332Z,97330.84
2023-05-12T05:04:42.534Z,97328.94
2023-05-12T05:07:10.875Z,97329.78
2023-05-12T05:09:39.231Z,97322.06
2023-05-12T05:12:10.004Z,97325.47
2023-05-12T05:14:39.180Z,97333.25
2023-05-12T05:17:08.112Z,97328.81
2023-05-12T05:19:49.958Z,97338.16
2023-05-12T05:22:22.855Z,97335.28
2023-05-12T05:24:51.073Z,97339.38
2023-05-12T05:27:20.801Z,97339.47
2023-05-12T05:29:49.538Z,97343.84
2023-05-12T05:32:18.381Z,97347.44
2023-05-12T05:34:46.796Z,97303.00
2023-05-12T05:37:15.025Z,97356.97
2023-05-12T05:39:43.231Z,97350.81
2023-05-12T05:42:11.439Z,97334.56
2023-05-12T05:44:41.342Z,97352.44
2023-05-12T05:47:09.596Z,97355.81
2023-05-12T05:49:37.839Z,97354.97
2023-05-12T05:52:06.420Z,97355.81
2023-05-12T05:54:34.564Z,97360.78
2023-05-12T05:57:03.672Z,97351.09
2023-05-12T05:59:32.397Z,97301.00
2023-05-12T06:02:02.085Z,97358.44
2023-05-12T06:04:30.590Z,97350.56
2023-05-12T06:06:58.869Z,97355.00
2023-05-12T06:09:26.984Z,97362.84
2023-05-12T06:11:55.160Z,97366.41
2023-05-12T06:14:23.448Z,97373.31
2023-05-12T06:16:51.938Z,97380.31
2023-05-12T06:19:21.758Z,97379.44
2023-05-12T06:21:49.972Z,97385.56
2023-05-12T06:24:18.173Z,97382.06
2023-05-12T06:26:46.412Z,97377.09
2023-05-12T06:29:15.338Z,97379.78
2023-05-12T06:31:43.608Z,97306.41
2023-05-12T06:34:12.988Z,97396.22
2023-05-12T06:36:42.564Z,97389.22
2023-05-12T06:39:10.889Z,97392.53
2023-05-12T06:41:39.112Z,97372.91
2023-05-12T06:44:12.378Z,97316.19
2023-05-12T06:46:40.867Z,97317.13
2023-05-12T06:49:09.440Z,97402.53
2023-05-12T06:51:37.592Z,97400.50
2023-05-12T06:54:07.578Z,97400.44
2023-05-12T06:56:35.814Z,97402.81
2023-05-12T06:59:04.517Z,97400.69
2023-05-12T07:01:33.505Z,97409.22
2023-05-12T07:04:01.772Z,97404.44
2023-05-12T07:06:30.054Z,97406.69
2023-05-12T07:08:58.649Z,97401.00
2023-05-12T07:11:28.802Z,97350.00
2023-05-12T07:13:57.058Z,97395.13
2023-05-12T07:16:25.365Z,97399.22
2023-05-12T07:18:53.644Z,97393.66
2023-05-12T07:21:22.046Z,97371.97
2023-05-12T07:23:50.393Z,97378.69
2023-05-12T07:26:18.823Z,97396.41
2023-05-12T07:28:48.388Z,97395.44
2023-05-12T07:31:17.071Z,97399.84
2023-05-12T07:33:45.357Z,97367.50
2023-05-12T07:36:13.557Z,97396.63
2023-05-12T07:38:44.466Z,97394.78
2023-05-12T07:41:12.755Z,97395.53
2023-05-12T07:43:41.109Z,97389.28
2023-05-12T07:46:10.721Z,97387.19
2023-05-12T07:48:40.447Z,97399.81
2023-05-12T07:51:09.628Z,97391.56
2023-05-12T07:53:37.833Z,97388.53
2023-05-12T07:56:07.388Z,97395.03
2023-05-12T07:58:35.652Z,97384.44
2023-05-12T08:01:06.210Z,97391.97
2023-05-12T08:03:36.689Z,97389.13
2023-05-12T08:06:06.044Z,97385.16
2023-05-12T08:08:34.335Z,97380.97
2023-05-12T08:11:02.480Z,97394.50
2023-05-12T08:13:30.711Z,97397.69
2023-05-12T08:15:58.851Z,97392.75
2023-05-12T08:18:27.167Z,97398.63
2023-05-12T08:20:56.909Z,97399.66
2023-05-12T08:23:25.108Z,97375.91
2023-05-12T08:25:53.328Z,97398.91
2023-05-12T08:28:21.534Z,97389.72
2023-05-12T08:30:49.840Z,97401.81
2023-05-12T08:33:18.379Z,97402.03
2023-05-12T08:35:46.802Z,97396.22
2023-05-12T08:38:16.728Z,97403.16
2023-05-12T08:40:55.307Z,97407.56
2023-05-12T08:43:26.413Z,97410.91
2023-05-12T08:45:57.728Z,97409.09
2023-05-12T08:48:28.517Z,97409.28
2023-05-12T08:50:57.258Z,97339.16
2023-05-12T08:53:29.228Z,97407.00
2023-05-12T08:57:09.723Z,97414.88
2023-05-12T08:58:47.432Z,97417.50
2023-05-12T09:01:17.579Z,97421.94
2023-05-12T09:03:45.952Z,97419.53
2023-05-12T09:06:15.408Z,97414.53
2023-05-12T09:08:46.655Z,97393.19
2023-05-12T09:11:15.467Z,97434.19
2023-05-12T09:13:51.145Z,97431.38
2023-05-12T09:16:26.501Z,97432.50
2023-05-12T09:18:59.160Z,97443.88
2023-05-12T09:21:28.009Z,97442.03
2023-05-12T09:24:05.951Z,97447.16
2023-05-12T09:26:46.665Z,97442.47
2023-05-12T09:29:23.957Z,97436.88
2023-05-12T09:31:58.795Z,97388.63
2023-05-12T09:34:29.778Z,97421.09
2023-05-12T09:36:58.771Z,97431.97
2023-05-12T09:39:29.083Z,97429.31
2023-05-12T09:41:57.653Z,97433.09
2023-05-12T09:44:29.112Z,97433.88
2023-05-12T09:46:57.423Z,97426.75
2023-05-12T09:49:27.173Z,97428.44
2023-05-12T09:51:57.150Z,97414.66
2023-05-12T09:54:30.424Z,97423.53
2023-05-12T09:57:00.790Z,97436.97
2023-05-12T09:59:32.852Z,97421.09
2023-05-12T10:02:02.569Z,97431.28
2023-05-12T10:04:37.258Z,97415.09
2023-05-12T10:07:05.822Z,97416.00
2023-05-12T10:09:41.908Z,97422.78
2023-05-12T10:12:11.053Z,97442.22
2023-05-12T10:14:39.941Z,97428.97
2023-05-12T10:17:09.161Z,97428.06
2023-05-12T10:19:38.929Z,97429.72
2023-05-12T10:22:10.986Z,97395.88
2023-05-12T10:24:42.202Z,97421.75
2023-05-12T10:27:12.022Z,97405.44
2023-05-12T10:29:40.776Z,97420.25
2023-05-12T10:32:09.234Z,97424.03
2023-05-12T10:34:38.905Z,97395.47
2023-05-12T10:37:09.264Z,97395.13
2023-05-12T10:39:38.220Z,97396.81
2023-05-12T10:42:09.944Z,97419.78
2023-05-12T10:44:49.018Z,97423.47
2023-05-12T10:47:17.507Z,97426.72
2023-05-12T10:49:46.503Z,97410.28
2023-05-12T10:52:15.205Z,97420.09
2023-05-12T10:54:45.809Z,97417.16
2023-05-12T10:57:18.616Z,97414.28
2023-05-12T10:59:52.087Z,97425.91
2023-05-12T11:02:27.532Z,97433.50
2023-05-12T11:04:59.152Z,97434.34
2023-05-12T11:07:30.630Z,97376.13
2023-05-12T11:10:02.135Z,97426.59
2023-05-12T11:12:34.083Z,97434.69
2023-05-12T11:15:03.551Z,97399.09
2023-05-12T11:17:32.620Z,97444.28
2023-05-12T11:20:01.877Z,97446.88
2023-05-12T11:22:30.320Z,97437.63
2023-05-12T11:24:58.724Z,97424.88
2023-05-12T11:27:26.912Z,97386.00
2023-05-12T11:30:00.264Z,97438.66
2023-05-12T11:32:29.862Z,97456.72
2023-05-12T11:35:12.734Z,97462.94
2023-05-12T11:37:47.325Z,97456.03
2023-05-12T11:40:17.270Z,97450.94
2023-05-12T11:42:48.888Z,97454.22
2023-05-12T11:45:27.677Z,97452.25
2023-05-12T11:48:07.849Z,97451.00
2023-05-12T11:50:39.248Z,97447.63
2023-05-12T11:53:12.408Z,97456.97
2023-05-12T11:55:49.158Z,97451.72
2023-05-12T11:58:21.868Z,97459.59
2023-05-12T12:00:51.771Z,97459.06
2023-05-12T12:03:20.557Z,97449.03
2023-05-12T12:06:00.113Z,97454.84
2023-05-12T12:08:28.560Z,97455.50
2023-05-12T12:10:57.054Z,97454.66
2023-05-12T12:13:26.600Z,97455.34
2023-05-12T12:15:56.499Z,97449.41
2023-05-12T12:18:25.195Z,97450.53
2023-05-12T12:20:53.434Z,97456.47
2023-05-12T12:23:21.641Z,97456.63
2023-05-12T12:25:49.879Z,97458.44
2023-05-12T12:28:18.061Z,97455.81
2023-05-12T12:30:46.624Z,97433.72
2023-05-12T12:33:16.927Z,97458.41
2023-05-12T12:35:47.951Z,97463.69
2023-05-12T12:38:16.574Z,97462.09
2023-05-12T12:40:44.788Z,97461.41
2023-05-12T12:43:13.046Z,97461.59
2023-05-12T12:45:41.228Z,97459.31
2023-05-12T12:48:09.446Z,97464.41
2023-05-12T12:50:39.526Z,97475.00
2023-05-12T12:53:07.838Z,97469.66
2023-05-12T12:55:36.012Z,97457.63
2023-05-12T12:58:04.163Z,97469.28
2023-05-12T13:00:32.317Z,97470.91
2023-05-12T13:03:01.411Z,97462.84
2023-05-12T13:05:29.686Z,97472.59
2023-05-12T13:07:59.199Z,97452.06
2023-05-12T13:10:27.683Z,97465.72
2023-05-12T13:12:56.044Z,97470.13
2023-05-12T13:15:24.440Z,97478.03
2023-05-12T13:17:53.058Z,97464.97
2023-05-12T13:20:21.647Z,97463.19
2023-05-12T13:22:49.980Z,97467.25
2023-05-12T13:25:19.943Z,97463.66
2023-05-12T13:27:48.254Z,97446.69
2023-05-12T13:30:16.811Z,97468.28
2023-05-12T13:32:45.113Z,97439.53
2023-05-12T13:35:13.376Z,97468.66
2023-05-12T13:37:41.610Z,97468.63
2023-05-12T13:40:10.943Z,97463.63
2023-05-12T13:42:40.526Z,97460.44
2023-05-12T13:45:10.648Z,97479.81
2023-05-12T13:47:38.950Z,97410.06
2023-05-12T13:50:08.637Z,97472.94
2023-05-12T13:52:37.094Z,97482.72
2023-05-12T13:55:05.710Z,97490.16
2023-05-12T13:57:33.917Z,97490.47
2023-05-12T14:00:04.239Z,97489.50
2023-05-12T14:02:32.388Z,97496.53
2023-05-12T14:05:00.672Z,97494.69
2023-05-12T14:07:29.377Z,97493.09
2023-05-12T14:09:57.857Z,97488.03
2023-05-12T14:12:26.200Z,97485.66
2023-05-12T14:14:58.093Z,97466.56
2023-05-12T14:17:31.883Z,97465.72
2023-05-12T14:20:00.079Z,97491.38
2023-05-12T14:22:28.327Z,97494.09
2023-05-12T14:24:56.927Z,97502.00
2023-05-12T14:27:25.359Z,97500.03
2023-05-12T14:29:53.598Z,97493.06
2023-05-12T14:32:21.884Z,97529.41
2023-05-12T14:34:51.501Z,97510.84
2023-05-12T14:37:19.622Z,97506.75
2023-05-12T14:39:47.838Z,97505.22
2023-05-12T14:42:16.072Z,97506.16
2023-05-12T14:44:44.286Z,97485.25
2023-05-12T14:47:12.614Z,97506.72
2023-05-12T14:49:41.275Z,97503.25
2023-05-12T14:52:11.642Z,97500.72
2023-05-12T14:54:39.856Z,97505.06
2023-05-12T14:57:08.415Z,97499.00
2023-05-12T14:59:36.619Z,97504.09
2023-05-12T15:02:04.871Z,97511.06
2023-05-12T15:04:33.206Z,97500.97
2023-05-12T15:07:01.439Z,97509.59
2023-05-12T15:09:31.065Z,97509.00
2023-05-12T15:11:59.237Z,97455.63
2023-05-12T15:14:27.452Z,97512.03
2023-05-12T15:16:55.692Z,97511.16
2023-05-12T15:19:23.928Z,97518.31
2023-05-12T15:21:52.172Z,97516.00
2023-05-12T15:24:20.360Z,97529.38
2023-05-12T15:26:49.976Z,97515.31
2023-05-12T15:29:18.172Z,97525.13
2023-05-12T15:31:46.476Z,97516.63
2023-05-12T15:34:14.825Z,97521.88
2023-05-12T15:36:45.893Z,97523.97
2023-05-12T15:39:14.142Z,97517.00
2023-05-12T15:41:42.353Z,97525.44
2023-05-12T15:44:12.009Z,97534.94
2023-05-12T15:46:40.299Z,97531.63
2023-05-12T15:49:08.808Z,97527.41
2023-05-12T15:51:37.634Z,97527.41
2023-05-12T15:54:07.847Z,97525.63
2023-05-12T15:56:37.745Z,97535.97
2023-05-12T15:59:07.561Z,97467.22
2023-05-12T16:01:37.399Z,97507.59
2023-05-12T16:04:05.647Z,97534.13
2023-05-12T16:06:34.091Z,97535.03
2023-05-12T16:09:02.450Z,97543.06
2023-05-12T16:11:30.625Z,97488.34
2023-05-12T16:13:59.731Z,97544.03
2023-05-12T16:16:27.995Z,97540.59
2023-05-12T16:18:57.992Z,97540.97
2023-05-12T16:21:26.351Z,97540.75
2023-05-12T16:23:54.577Z,97537.28
2023-05-12T16:26:23.809Z,97537.59
2023-05-12T16:28:52.177Z,97544.63
2023-05-12T16:31:20.373Z,97541.13
2023-05-12T16:33:48.538Z,97546.69
2023-05-12T16:36:19.654Z,97520.38
2023-05-12T16:38:48.345Z,97559.94
2023-05-12T16:41:16.749Z,97550.22
2023-05-12T16:43:45.099Z,97561.00
2023-05-12T16:46:13.575Z,97552.72
2023-05-12T16:48:41.727Z,97564.91
2023-05-12T16:51:11.559Z,97556.25
2023-05-12T16:53:41.408Z,97562.44
2023-05-12T16:56:09.991Z,97551.50
2023-05-12T16:58:38.341Z,97566.34
2023-05-12T17:01:06.771Z,97470.13
2023-05-12T17:03:35.207Z,97569.94
2023-05-12T17:06:04.140Z,97570.91
2023-05-12T17:08:35.593Z,97571.09
2023-05-12T17:11:06.381Z,97572.94
2023-05-12T17:13:37.386Z,97569.81
2023-05-12T17:16:06.078Z,97577.69
2023-05-12T17:19:13.615Z,97563.88
2023-05-12T17:21:22.537Z,97576.00
2023-05-12T17:23:50.817Z,97583.78
2023-05-12T17:26:21.125Z,97587.34
2023-05-12T17:28:49.470Z,97547.13
2023-05-12T17:31:17.749Z,97585.72
2023-05-12T17:33:45.982Z,97593.56
2023-05-12T17:36:14.657Z,97594.69
2023-05-12T17:38:43.603Z,97591.09
2023-05-12T17:41:11.917Z,97579.34
2023-05-12T17:43:41.588Z,97601.94
2023-05-12T17:46:09.848Z,97602.56
2023-05-12T17:48:38.892Z,97588.00
2023-05-12T17:51:07.837Z,97594.22
2023-05-12T17:53:36.244Z,97595.09
2023-05-12T17:56:04.631Z,97587.28
2023-05-12T17:58:32.854Z,97606.56
2023-05-12T18:01:03.527Z,97610.38
2023-05-12T18:03:31.862Z,97576.88
2023-05-12T18:06:00.259Z,97605.25
2023-05-12T18:08:28.493Z,97607.88
2023-05-12T18:10:56.764Z,97606.97
2023-05-12T18:13:25.145Z,97597.38
2023-05-12T18:15:53.360Z,97613.72
2023-05-12T18:18:23.141Z,97612.03
2023-05-12T18:20:51.392Z,97617.22
2023-05-12T18:23:19.563Z,97605.78
2023-05-12T18:25:47.787Z,97613.66
2023-05-12T18:28:15.972Z,97616.28
2023-05-12T18:30:44.327Z,97614.56
2023-05-12T18:33:12.644Z,97613.69
2023-05-12T18:35:42.407Z,97618.69
2023-05-12T18:38:10.626Z,97608.44
2023-05-12T18:40:39.655Z,97621.41
2023-05-12T18:43:07.942Z,97611.25
2023-05-12T18:45:36.241Z,97620.66
2023-05-12T18:48:04.477Z,97596.78
2023-05-12T18:50:32.669Z,97622.31
2023-05-12T18:53:02.345Z,97577.13
2023-05-12T18:55:30.520Z,97632.09
2023-05-12T18:57:58.766Z,97636.44
2023-05-12T19:00:31.936Z,97642.00
2023-05-12T19:03:00.427Z,97644.75
2023-05-12T19:05:28.934Z,97643.81
2023-05-12T19:07:57.192Z,97609.44
2023-05-12T19:10:27.628Z,97646.28
2023-05-12T19:12:55.872Z,97597.38
2023-05-12T19:15:24.091Z,97651.72
2023-05-12T19:17:52.386Z,97649.94
2023-05-12T19:20:20.686Z,97650.72
2023-05-12T19:22:50.234Z,97655.97
2023-05-12T19:25:18.628Z,97662.03
2023-05-12T19:27:48.507Z,97644.09
2023-05-12T19:30:16.892Z,97668.09
2023-05-12T19:32:46.255Z,97615.00
2023-05-12T19:35:16.776Z,97662.19
2023-05-12T19:37:45.303Z,97666.53
2023-05-12T19:40:13.993Z,97667.53
2023-05-12T19:42:42.645Z,97660.81
2023-05-12T19:45:12.920Z,97675.16
2023-05-12T19:47:41.700Z,97680.44
2023-05-12T19:50:11.543Z,97678.97
2023-05-12T19:52:39.833Z,97686.06
2023-05-12T19:55:09.339Z,97680.69
2023-05-12T19:57:38.358Z,97685.47
2023-05-12T20:00:08.268Z,97683.88
2023-05-12T20:02:38.250Z,97689.84
2023-05-12T20:05:07.182Z,97688.94
2023-05-12T20:07:35.416Z,97679.91
2023-05-12T20:10:03.844Z,97674.09
2023-05-12T20:12:32.012Z,97689.00
2023-05-12T20:15:00.205Z,97689.13
2023-05-12T20:17:28.447Z,97688.69
2023-05-12T20:19:58.565Z,97690.63
2023-05-12T20:22:26.870Z,97660.38
2023-05-12T20:24:55.054Z,97677.50
2023-05-12T20:27:23.221Z,97681.13
2023-05-12T20:29:51.804Z,97688.13
2023-05-12T20:32:19.948Z,97688.97
2023-05-12T20:34:48.126Z,97683.78
2023-05-12T20:37:18.378Z,97682.03
2023-05-12T20:39:46.606Z,97685.63
2023-05-12T20:42:14.814Z,97680.47
2023-05-12T20:44:43.187Z,97682.31
2023-05-12T20:47:11.398Z,97683.28
2023-05-12T20:49:39.585Z,97680.59
2023-05-12T20:52:08.396Z,97688.31
2023-05-12T20:54:38.653Z,97690.88
2023-05-12T20:57:07.286Z,97691.50
2023-05-12T20:59:35.516Z,97689.78
2023-05-12T21:02:03.769Z,97687.09
2023-05-12T21:04:31.965Z,97619.59
2023-05-12T21:07:00.203Z,97649.56
2023-05-12T21:09:28.745Z,97692.69
2023-05-12T21:11:58.686Z,97687.50
2023-05-12T21:14:26.858Z,97688.47
2023-05-12T21:16:55.193Z,97694.69
2023-05-12T21:19:23.381Z,97590.72
2023-05-12T21:21:51.595Z,97693.78
2023-05-12T21:24:19.873Z,97686.09
2023-05-12T21:26:48.154Z,97695.56
2023-05-12T21:29:17.866Z,97691.38
2023-05-12T21:31:47.522Z,97699.25
2023-05-12T21:34:15.871Z,97694.91
2023-05-12T21:36:44.025Z,97698.09
2023-05-12T21:39:12.219Z,97700.63
2023-05-12T21:41:40.662Z,97692.13
2023-05-12T21:44:11.098Z,97663.81
2023-05-12T21:46:41.056Z,97695.66
2023-05-12T21:49:09.295Z,97685.25
2023-05-12T21:51:37.525Z,97681.75
2023-05-12T21:54:05.791Z,97608.88
2023-05-12T21:56:34.450Z,97696.22
2023-05-12T21:59:02.804Z,97700.56
2023-05-12T22:01:31.116Z,97689.94
2023-05-12T22:04:00.988Z,97710.88
2023-05-12T22:06:29.187Z,97695.19
2023-05-12T22:08:57.450Z,97704.78
2023-05-12T22:11:25.655Z,97705.56
2023-05-12T22:13:53.787Z,97710.00
2023-05-12T22:16:28.503Z,97696.72
2023-05-12T22:19:04.570Z,97697.59
2023-05-12T22:21:32.970Z,97689.22
2023-05-12T22:24:01.118Z,97703.06
2023-05-12T22:26:29.284Z,97672.34
2023-05-12T22:28:57.515Z,97708.50
2023-05-12T22:31:25.734Z,97612.19
2023-05-12T22:33:53.970Z,97705.91
2023-05-12T22:36:23.617Z,97687.38
2023-05-12T22:38:51.746Z,97706.09
2023-05-12T22:41:20.078Z,97704.28
2023-05-12T22:43:48.216Z,97690.53
2023-05-12T22:46:16.385Z,97702.66
2023-05-12T22:48:44.650Z,97636.50
2023-05-12T22:51:12.868Z,97700.84
2023-05-12T22:53:42.467Z,97703.41
2023-05-12T22:56:10.625Z,97698.09
2023-05-12T22:58:38.784Z,97703.22
2023-05-12T23:01:07.297Z,97684.25
2023-05-12T23:03:35.563Z,97702.50
2023-05-12T23:06:03.759Z,97696.41
2023-05-12T23:08:31.909Z,97672.31
2023-05-12T23:11:01.607Z,97694.78
2023-05-12T23:13:30.946Z,97699.19
2023-05-12T23:15:59.368Z,97693.88
2023-05-12T23:18:27.634Z,97678.41
2023-05-12T23:20:55.856Z,97687.84
2023-05-12T23:23:24.072Z,97686.88
2023-05-12T23:25:52.219Z,97685.34
2023-05-12T23:28:21.972Z,97697.38
2023-05-12T23:30:50.169Z,97692.13
2023-05-12T23:33:18.570Z,97675.03
2023-05-12T23:35:46.863Z,97684.38
2023-05-12T23:38:15.011Z,97690.63
2023-05-12T23:40:43.188Z,97688.88
2023-05-12T23:43:11.670Z,97677.47
2023-05-12T23:45:41.388Z,97685.97
2023-05-12T23:48:09.603Z,97677.31
2023-05-12T23:50:37.809Z,97675.47
2023-05-12T23:53:06.033Z,97634.22
2023-05-12T23:55:34.239Z,97618.78
2023-05-12T23:58:02.465Z,97667.66
